NCAR-RAP Real-Time Weather Data

Output produced by METARs form (10 April 2020  07:15 UTC)
found at http://weather.rap.ucar.edu/surface/
 
KMFI 100654Z AUTO 32011KT 10SM OVC055 00/M06 A2994 RMK AO2 SLP154 T00001056
KMFI 100554Z AUTO 32011KT 10SM BKN060 M01/M06 A2993 RMK AO2 SLP149 T10061056 10017 21011 400391011 53006
KMFI 100454Z AUTO 32011KT 10SM CLR M01/M06 A2992 RMK AO2 SLP148 T10061056
KMFI 100354Z AUTO 32013G21KT 10SM CLR 00/M06 A2992 RMK AO2 PK WND 32027/0320 SLP146 T00001056
KMFI 100254Z AUTO 32012KT 10SM CLR 00/M06 A2991 RMK AO2 SLP143 T00001056 51023
KMFI 100154Z AUTO 33016G24KT 10SM FEW050 OVC070 01/M06 A2989 RMK AO2 PK WND 33027/0123 SLP138 T00111056
KMFI 100054Z AUTO 32016KT 10SM OVC070 02/M07 A2986 RMK AO2 PK WND 32026/0044 SLP126 T00171067
KMFI 092354Z AUTO 33014G22KT 10SM FEW047 02/M07 A2984 RMK AO2 PK WND 33027/2304 SLP118 60001 T00221067 10033 21011 53021
KMFI 092254Z AUTO 33020G27KT 10SM FEW037 FEW070 02/M06 A2981 RMK AO2 PK WND 01033/2206 SNB08E35 SLP109 P0000 T00221061
KMFI 092218Z AUTO 34016G26KT 4SM -SN FEW026 BKN037 OVC065 02/M04 A2980 RMK AO2 PK WND 01033/2206 SNB08 P0000 T00171044
KMFI 092211Z AUTO 35019G33KT 1 3/4SM -SN FEW023 BKN048 OVC065 01/M04 A2980 RMK AO2 PK WND 01033/2206 SNB08 P0000 T00111044
KMFI 092154Z AUTO 33014G23KT 10SM FEW046 BKN065 BKN095 03/M03 A2979 RMK AO2 PK WND 35033/2114 WSHFT 2109 SNB13E32 SLP101 P0000 T00281033
KMFI 092136Z AUTO 34014G20KT 9SM SCT025 SCT040 BKN095 02/M02 A2979 RMK AO2 PK WND 35033/2114 WSHFT 2109 SNB13E32 P0000 T00221022
KMFI 092129Z AUTO 35008G21KT 2 1/2SM -SN SCT028 BKN034 OVC095 01/M02 A2979 RMK AO2 PK WND 35033/2114 WSHFT 2109 SNB13 P0000 T00061022
KMFI 092126Z AUTO 35009G21KT 1SM -SN BR SCT023 BKN035 OVC090 00/M02 A2979 RMK AO2 PK WND 35033/2114 WSHFT 2109 SNB13 P0000 T00001022
KMFI 092119Z AUTO 34014G33KT 3/4SM -SN BR SCT015 SCT027 BKN035 M01/M03 A2979 RMK AO2 PK WND 35033/2114 VIS 1/2V5 SNB13 P0000 T10061028
KMFI 092116Z AUTO 34023G33KT 1 3/4SM -SN FEW017 SCT027 BKN035 00/M03 A2979 RMK AO2 PK WND 35033/2114 VIS 1/2V5 SNB13 P0000 T00001033
KMFI 092054Z AUTO 31012G20KT 10SM FEW031 FEW100 03/M03 A2977 RMK AO2 PK WND 34030/2028 SNE04B30E40 SLP095 P0000 60001 T00281028 53007
KMFI 092001Z AUTO 33011G16KT 3SM -SN BR SCT013 SCT022 BKN040 00/M02 A2977 RMK AO2 P0000 T00001022
KMFI 091958Z AUTO 34009G21KT 1 1/4SM -SN BR SCT013 BKN022 BKN040 00/M02 A2977 RMK AO2 P0000 T00001022
KMFI 091954Z AUTO 34009G21KT 1/2SM -SN FZFG BKN013 BKN024 BKN065 M01/M02 A2977 RMK AO2 PK WND 33035/1941 UPB38E42SNB11E38B44 SLP094 P0000 T10061022
KMFI 091952Z AUTO 34011G32KT 1/2SM SN FZFG BKN013 BKN024 BKN041 M01/M03 A2977 RMK AO2 PK WND 33035/1941 UPB38E42SNB11E38B44 P0000
KMFI 091947Z AUTO 35016G35KT 1SM -SN BR BKN016 BKN022 BKN070 M01/M03 A2978 RMK AO2 PK WND 33035/1941 UPB38E42SNB11E38B44 P0000 T10061028
KMFI 091945Z AUTO 34021G35KT 2SM -SN FEW012 BKN019 BKN038 00/M03 A2978 RMK AO2 PK WND 33035/1941 UPB38E42SNB11E38B44 P0000 T00001028
KMFI 091935Z AUTO 33014G21KT 3SM -SN FEW014 SCT022 BKN038 02/M01 A2976 RMK AO2 PK WND 32027/1904 SNB11 P0000 T00221011
KMFI 091933Z AUTO 33014KT 1 1/4SM -SN SCT018 BKN029 BKN046 02/M01 A2976 RMK AO2 PK WND 32027/1904 SNB11 P0000 T00171011
KMFI 091931Z AUTO 33014KT 3/4SM -SN BKN020 BKN033 OVC085 01/M02 A2976 RMK AO2 PK WND 32027/1904 SNB11 P0000 T00111017
KMFI 091924Z AUTO 33016G25KT 1SM -SN BR FEW012 BKN020 OVC055 01/M02 A2976 RMK AO2 PK WND 32027/1904 SNB11 P0000 T00061017
KMFI 091921Z AUTO 34018G25KT 2SM -SN FEW015 BKN028 BKN035 01/M02 A2976 RMK AO2 PK WND 32027/1904 VIS 1/2V5 SNB11 P0000 T00111017
KMFI 091854Z AUTO 33012G18KT 10SM FEW015 SCT044 01/M03 A2975 RMK AO2 PK WND 30038/1806 SNE45 SLP087 P0001 T00111028
KMFI 091852Z AUTO 34011KT 10SM SCT013 SCT044 01/M03 A2975 RMK AO2 PK WND 30038/1806 SNE45 P0001
KMFI 091844Z AUTO 33011KT 6SM -SN BKN013 BKN044 BKN075 00/M03 A2975 RMK AO2 PK WND 30038/1806 P0001 T00001033
KMFI 091840Z AUTO 34011G23KT 2SM -SN BKN015 BKN035 OVC075 M01/M03 A2975 RMK AO2 PK WND 30038/1806 P0001 T10061033
KMFI 091838Z AUTO 35011G23KT 1SM -SN BKN015 BKN035 OVC045 M01/M03 A2975 RMK AO2 PK WND 30038/1806 P0001 T10061033
KMFI 091831Z AUTO 34014G27KT 1/4SM SN FZFG BKN011 BKN015 OVC023 M01/M03 A2976 RMK AO2 PK WND 30038/1806 P0001 T10111033
KMFI 091821Z AUTO 35023G37KT 3/4SM -SN BKN016 BKN025 OVC040 M01/M03 A2975 RMK AO2 PK WND 30038/1806 PRESRR P0001 T10061033
KMFI 091818Z AUTO 33027G37KT 1 1/4SM -SN FEW014 BKN021 OVC040 00/M03 A2975 RMK AO2 PK WND 30038/1806 PRESRR P0001 T00001033
KMFI 091815Z AUTO 32021G38KT 3/4SM -SN BKN021 BKN036 OVC047 00/M03 A2974 RMK AO2 PK WND 30038/1806 P0001 T00001028
KMFI 091808Z AUTO 32021G38KT 1 1/2SM -SN SCT023 BKN036 OVC090 02/M03 A2974 RMK AO2 PK WND 30038/1806 P0000 T00171033
KMFI 091754Z AUTO 30015G26KT 4SM -SN FEW028 BKN038 BKN048 02/M03 A2973 RMK AO2 PK WND 31031/1659 SNE01B51 SLP080 P0000 60000 T00171033 10039 21006 51008
KMFI 091702Z AUTO 32021G31KT 9SM FEW020 SCT037 BKN075 02/M03 A2972 RMK AO2 PK WND 31031/1659 SNE01 P0000 T00221028
KMFI 091654Z AUTO 31020G32KT 2 1/2SM -SN FEW025 BKN033 OVC075 01/M04 A2972 RMK AO2 PK WND 32032/1652 SNE08B25 SLP078 P0000 T00061039
KMFI 091641Z AUTO 31016G23KT 9SM FEW028 BKN037 OVC075 02/M04 A2972 RMK AO2 PK WND 34028/1624 SNE08B25E38 P0000 T00221039
KMFI 091631Z AUTO 34016G28KT 2SM -SN SCT022 BKN030 OVC040 00/M04 A2972 RMK AO2 PK WND 34028/1624 SNE08B25 P0000 T00001044
KMFI 091612Z AUTO 30011G20KT 9SM SCT022 BKN028 OVC046 01/M03 A2972 RMK AO2 SNE08 P0000 T00111033
KMFI 091604Z AUTO 29011G21KT 3SM -SN FEW022 BKN037 OVC070 00/M03 A2972 RMK AO2 P0000 T00001033
KMFI 091554Z AUTO 29016G27KT 1 1/2SM -SN SCT033 BKN040 OVC070 M01/M04 A2972 RMK AO2 PK WND 33030/1529 SNB47 SLP076 P0000 T10061039
KMFI 091454Z AUTO 31018G27KT 10SM FEW033 SCT040 OVC055 02/M06 A2971 RMK AO2 PK WND 31028/1427 SLP070 T00171056 58003
KMFI 091354Z AUTO 30015G23KT 10SM FEW023 SCT029 BKN042 01/M04 A2971 RMK AO2 PK WND 30028/1329 SLP073 T00061044
KMFI 091327Z AUTO 30017G24KT 10SM FEW025 BKN037 01/M04 A2972 RMK AO2 PK WND 30026/1314 T00111044
KMFI 091320Z AUTO 30014G26KT 10SM BKN026 BKN035 01/M04 A2972 RMK AO2 PK WND 30026/1314 T00061044
KMFI 091309Z AUTO 29014G22KT 10SM SCT024 BKN033 00/M04 A2972 RMK AO2 T00001044
KMFI 091254Z AUTO 29012G21KT 10SM BKN026 OVC034 01/M04 A2972 RMK AO2 SLP074 T00061044
KMFI 091154Z AUTO 29011G18KT 10SM OVC022 00/M04 A2971 RMK AO2 SLP072 T00001039 10028 21011 55002
KMFI 091146Z AUTO 29013G24KT 10SM BKN022 OVC060 00/M04 A2971 RMK AO2 T00001039
KMFI 091054Z AUTO 29009G18KT 10SM BKN055 M01/M04 A2971 RMK AO2 SLP069 T10061044
KMFI 090954Z AUTO 29010KT 10SM CLR M01/M04 A2971 RMK AO2 SLP069 T10061044
KMFI 090854Z AUTO 30012G20KT 10SM CLR 00/M05 A2972 RMK AO2 SLP073 T00001050 53005